Rush Springs, Oklahoma
Current Conditions -  °F | °C
As of 4:35 PM on Tuesday 21 Oct 2014 (Local Time) from KDUC Reporting Station
Scattered Clouds Scattered Clouds  
Wind Chill: 81°   Ceiling: Unl
Heat Index: 81°   Visibility: 10mi
Dew Point: 59°   Wind: 9mph
Humidity: 48%   Direction: 170°S
Pressure: 30.03"   Gusts: NA
Location:  34.78°N, 97.96°W
Report Text: KDUC 212135Z AUTO 17008KT 10SM SCT055 27/15 A3003 RMK AO2
Loading
Personal Weather Stations






























Interactive Weather Map
Tropical Storm Tracking
New forecast layout! Learn more

10-Day Weather Forecast

Advertisements
Track Severe Weather on mobile